SBI346 ULLI-UMKK
Flight info
| Callsign | SBI346 |
|---|---|
| Flight time | 1h 27m |
| Altitude | 36000 |
| Route | UTETA1D UTETA DCT PISIS DCT ARANS/N0453F360 DCT PIDIN DCT PISIM DCT PIRUX DCT PIVAX/N0457F350 DCT GARSO DCT AGONA DCT TURIP TURIP3F |
| Aircraft | A320/M-SDE3FGHIRWY/LB1 |
Departure
| Time | 2026-05-08 19:03 |
|---|---|
| Airport | Pulkovo Airport (ULLI) |
Arrival
| Time | 2026-05-08 20:31 |
|---|---|
| Airport | Khrabrovo Airport (UMKK) |
| Time | Latitude | Longitude | Altitude | Speed | Heading |
|---|---|---|---|---|---|
| 2026-05-08 18:34 | 59.79778 | 30.26687 | 80 ft | 0 kts | 95° |
| 2026-05-08 18:50 | 59.79778 | 30.26680 | 78 ft | 3 kts | 95° |
| 2026-05-08 18:50 | 59.79780 | 30.26627 | 78 ft | 4 kts | 95° |
| 2026-05-08 18:50 | 59.79782 | 30.26586 | 78 ft | 4 kts | 94° |
| 2026-05-08 18:50 | 59.79781 | 30.26534 | 80 ft | 4 kts | 62° |
| 2026-05-08 18:51 | 59.79765 | 30.26508 | 82 ft | 3 kts | 15° |
| 2026-05-08 18:51 | 59.79743 | 30.26495 | 78 ft | 1 kts | 16° |
| 2026-05-08 18:51 | 59.79742 | 30.26494 | 78 ft | 0 kts | 16° |
| 2026-05-08 18:53 | 59.79754 | 30.26501 | 78 ft | 5 kts | 16° |
| 2026-05-08 18:53 | 59.79808 | 30.26532 | 78 ft | 9 kts | 16° |
| 2026-05-08 18:53 | 59.79860 | 30.26563 | 83 ft | 7 kts | 17° |
| 2026-05-08 18:54 | 59.79901 | 30.26588 | 78 ft | 5 kts | 17° |
| 2026-05-08 18:54 | 59.79932 | 30.26607 | 81 ft | 4 kts | 17° |
| 2026-05-08 18:54 | 59.79974 | 30.26632 | 81 ft | 9 kts | 17° |
| 2026-05-08 18:54 | 59.80048 | 30.26676 | 82 ft | 13 kts | 15° |
| 2026-05-08 18:55 | 59.80274 | 30.26808 | 77 ft | 19 kts | 17° |
| 2026-05-08 18:55 | 59.80362 | 30.26858 | 76 ft | 11 kts | 10° |
| 2026-05-08 18:55 | 59.80409 | 30.26778 | 78 ft | 9 kts | 288° |
| 2026-05-08 18:56 | 59.80428 | 30.26644 | 76 ft | 13 kts | 286° |
| 2026-05-08 18:56 | 59.80461 | 30.26427 | 76 ft | 19 kts | 287° |
| 2026-05-08 18:56 | 59.80500 | 30.26165 | 76 ft | 21 kts | 286° |
| 2026-05-08 18:56 | 59.80543 | 30.25878 | 67 ft | 23 kts | 287° |
| 2026-05-08 18:57 | 59.80590 | 30.25566 | 61 ft | 25 kts | 286° |
| 2026-05-08 18:57 | 59.80623 | 30.25344 | 70 ft | 26 kts | 287° |
| 2026-05-08 18:57 | 59.80685 | 30.24933 | 68 ft | 23 kts | 287° |
| 2026-05-08 18:57 | 59.80724 | 30.24687 | 59 ft | 15 kts | 297° |
| 2026-05-08 18:58 | 59.80803 | 30.24598 | 65 ft | 12 kts | 346° |
| 2026-05-08 18:58 | 59.80807 | 30.24596 | 65 ft | 0 kts | 346° |
| 2026-05-08 19:01 | 59.80808 | 30.24595 | 65 ft | 1 kts | 346° |
| 2026-05-08 19:01 | 59.80833 | 30.24584 | 57 ft | 6 kts | 347° |
| 2026-05-08 19:01 | 59.80897 | 30.24561 | 56 ft | 12 kts | 353° |
| 2026-05-08 19:01 | 59.80958 | 30.24646 | 64 ft | 10 kts | 89° |
| 2026-05-08 19:02 | 59.80956 | 30.24665 | 64 ft | 0 kts | 103° |
| 2026-05-08 19:02 | 59.80942 | 30.24767 | 60 ft | 33 kts | 105° |
| 2026-05-08 19:03 | 59.80805 | 30.25687 | 63 ft | 102 kts | 106° |
| 2026-05-08 19:03 | 59.80551 | 30.27392 | 78 ft | 153 kts | 106° |
| 2026-05-08 19:03 | 59.80241 | 30.29553 | 533 ft | 164 kts | 104° |
| 2026-05-08 19:03 | 59.79918 | 30.31725 | 1240 ft | 164 kts | 102° |
| 2026-05-08 19:04 | 59.79579 | 30.33987 | 1695 ft | 180 kts | 101° |
| 2026-05-08 19:04 | 59.79202 | 30.36526 | 1960 ft | 204 kts | 101° |
| 2026-05-08 19:04 | 59.78782 | 30.39369 | 2421 ft | 222 kts | 102° |
| 2026-05-08 19:04 | 59.78334 | 30.42352 | 3201 ft | 227 kts | 102° |
| 2026-05-08 19:05 | 59.77879 | 30.45366 | 4030 ft | 230 kts | 102° |
| 2026-05-08 19:05 | 59.77414 | 30.48441 | 4878 ft | 232 kts | 101° |
| 2026-05-08 19:05 | 59.76973 | 30.51536 | 5700 ft | 234 kts | 95° |
| 2026-05-08 19:05 | 59.77065 | 30.54689 | 6448 ft | 231 kts | 68° |
| 2026-05-08 19:06 | 59.77911 | 30.57495 | 6846 ft | 248 kts | 40° |
| 2026-05-08 19:06 | 59.79433 | 30.59129 | 7471 ft | 255 kts | 12° |
| 2026-05-08 19:06 | 59.81200 | 30.58992 | 8274 ft | 260 kts | 342° |
| 2026-05-08 19:06 | 59.82709 | 30.56984 | 9115 ft | 269 kts | 312° |
| 2026-05-08 19:07 | 59.83456 | 30.53527 | 9952 ft | 283 kts | 279° |
| 2026-05-08 19:07 | 59.83385 | 30.49555 | 10681 ft | 294 kts | 269° |
| 2026-05-08 19:07 | 59.83155 | 30.45353 | 10903 ft | 318 kts | 267° |
| 2026-05-08 19:07 | 59.82859 | 30.40841 | 11069 ft | 341 kts | 266° |
| 2026-05-08 19:08 | 59.82527 | 30.36019 | 11247 ft | 361 kts | 266° |
| 2026-05-08 19:08 | 59.82181 | 30.31003 | 11798 ft | 368 kts | 266° |
| 2026-05-08 19:08 | 59.81840 | 30.25951 | 12472 ft | 370 kts | 266° |
| 2026-05-08 19:08 | 59.81504 | 30.20857 | 13190 ft | 372 kts | 267° |
| 2026-05-08 19:09 | 59.81176 | 30.15754 | 13894 ft | 374 kts | 267° |
| 2026-05-08 19:09 | 59.80851 | 30.10606 | 14540 ft | 376 kts | 267° |
| 2026-05-08 19:09 | 59.80526 | 30.05445 | 15157 ft | 377 kts | 267° |
| 2026-05-08 19:09 | 59.80198 | 30.00257 | 15771 ft | 378 kts | 267° |
| 2026-05-08 19:10 | 59.79866 | 29.95062 | 16398 ft | 380 kts | 267° |
| 2026-05-08 19:10 | 59.79529 | 29.89860 | 16977 ft | 381 kts | 266° |
| 2026-05-08 19:10 | 59.79187 | 29.84632 | 17557 ft | 383 kts | 266° |
| 2026-05-08 19:10 | 59.78840 | 29.79381 | 18127 ft | 384 kts | 266° |
| 2026-05-08 19:11 | 59.78489 | 29.74120 | 18678 ft | 386 kts | 266° |
| 2026-05-08 19:11 | 59.78136 | 29.68826 | 19164 ft | 387 kts | 266° |
| 2026-05-08 19:11 | 59.77784 | 29.63529 | 19638 ft | 388 kts | 266° |
| 2026-05-08 19:11 | 59.77427 | 29.58199 | 20084 ft | 390 kts | 266° |
| 2026-05-08 19:12 | 59.77064 | 29.52840 | 20460 ft | 394 kts | 265° |
| 2026-05-08 19:12 | 59.76692 | 29.47428 | 20872 ft | 397 kts | 265° |
| 2026-05-08 19:12 | 59.76314 | 29.41984 | 21304 ft | 399 kts | 265° |
| 2026-05-08 19:12 | 59.75933 | 29.36510 | 21734 ft | 401 kts | 265° |
| 2026-05-08 19:13 | 59.75552 | 29.31025 | 22151 ft | 403 kts | 265° |
| 2026-05-08 19:13 | 59.75168 | 29.25501 | 22574 ft | 405 kts | 265° |
| 2026-05-08 19:13 | 59.74780 | 29.19960 | 22983 ft | 407 kts | 265° |
| 2026-05-08 19:13 | 59.74387 | 29.14403 | 23387 ft | 408 kts | 265° |
| 2026-05-08 19:14 | 59.73993 | 29.08815 | 23783 ft | 410 kts | 265° |
| 2026-05-08 19:14 | 59.73871 | 29.03186 | 24130 ft | 409 kts | 275° |
| 2026-05-08 19:14 | 59.74235 | 28.97608 | 24464 ft | 409 kts | 283° |
| 2026-05-08 19:14 | 59.75035 | 28.92206 | 24787 ft | 409 kts | 288° |
| 2026-05-08 19:15 | 59.75918 | 28.86828 | 25086 ft | 411 kts | 288° |
| 2026-05-08 19:15 | 59.76800 | 28.81412 | 25398 ft | 413 kts | 288° |
| 2026-05-08 19:15 | 59.77680 | 28.75992 | 25693 ft | 414 kts | 287° |
| 2026-05-08 19:15 | 59.78562 | 28.70534 | 25973 ft | 416 kts | 287° |
| 2026-05-08 19:16 | 59.79445 | 28.65050 | 26237 ft | 418 kts | 287° |
| 2026-05-08 19:16 | 59.80328 | 28.59539 | 26505 ft | 420 kts | 287° |
| 2026-05-08 19:16 | 59.81212 | 28.54009 | 26770 ft | 421 kts | 287° |
| 2026-05-08 19:16 | 59.82099 | 28.48446 | 27049 ft | 423 kts | 287° |
| 2026-05-08 19:17 | 59.82984 | 28.42878 | 27334 ft | 424 kts | 286° |
| 2026-05-08 19:17 | 59.83869 | 28.37291 | 27722 ft | 422 kts | 286° |
| 2026-05-08 19:17 | 59.84748 | 28.31725 | 28112 ft | 421 kts | 286° |
| 2026-05-08 19:17 | 59.85620 | 28.26186 | 28499 ft | 420 kts | 285° |
| 2026-05-08 19:18 | 59.86492 | 28.20641 | 28910 ft | 419 kts | 285° |
| 2026-05-08 19:18 | 59.87357 | 28.15121 | 29310 ft | 417 kts | 285° |
| 2026-05-08 19:18 | 59.88218 | 28.09606 | 29714 ft | 416 kts | 285° |
| 2026-05-08 19:18 | 59.89075 | 28.04098 | 30019 ft | 417 kts | 285° |
| 2026-05-08 19:19 | 59.89929 | 27.98583 | 30372 ft | 417 kts | 285° |
| 2026-05-08 19:19 | 59.90781 | 27.93058 | 30716 ft | 417 kts | 285° |
| 2026-05-08 19:19 | 59.91633 | 27.87534 | 31025 ft | 416 kts | 285° |
| 2026-05-08 19:19 | 59.92484 | 27.82030 | 31316 ft | 416 kts | 285° |
| 2026-05-08 19:20 | 59.93331 | 27.76523 | 31604 ft | 416 kts | 285° |
| 2026-05-08 19:20 | 59.95014 | 27.65499 | 32191 ft | 415 kts | 285° |
| 2026-05-08 19:20 | 59.95849 | 27.59981 | 32492 ft | 415 kts | 284° |
| 2026-05-08 19:21 | 59.96682 | 27.54463 | 32796 ft | 415 kts | 284° |
| 2026-05-08 19:21 | 59.97509 | 27.48951 | 33079 ft | 414 kts | 284° |
| 2026-05-08 19:21 | 59.98330 | 27.43459 | 33357 ft | 415 kts | 284° |
| 2026-05-08 19:21 | 59.99156 | 27.37919 | 33603 ft | 416 kts | 284° |
| 2026-05-08 19:22 | 59.99982 | 27.32385 | 33877 ft | 416 kts | 284° |
| 2026-05-08 19:22 | 60.00807 | 27.26852 | 34159 ft | 416 kts | 284° |
| 2026-05-08 19:22 | 60.01354 | 27.23170 | 34355 ft | 416 kts | 284° |
| 2026-05-08 19:22 | 60.02450 | 27.15758 | 34686 ft | 416 kts | 284° |
| 2026-05-08 19:23 | 60.02989 | 27.12091 | 34846 ft | 416 kts | 284° |
| 2026-05-08 19:23 | 60.03813 | 27.06467 | 35090 ft | 415 kts | 283° |
| 2026-05-08 19:23 | 60.04357 | 27.00898 | 35348 ft | 412 kts | 274° |
| 2026-05-08 19:23 | 60.04439 | 26.95200 | 35590 ft | 410 kts | 265° |
| 2026-05-08 19:24 | 60.04058 | 26.89554 | 35799 ft | 410 kts | 257° |
| 2026-05-08 19:24 | 60.03442 | 26.83987 | 35985 ft | 410 kts | 258° |
| 2026-05-08 19:24 | 60.02831 | 26.78423 | 36196 ft | 410 kts | 258° |
| 2026-05-08 19:24 | 60.02222 | 26.72852 | 36362 ft | 411 kts | 258° |
| 2026-05-08 19:25 | 60.01609 | 26.67254 | 36408 ft | 414 kts | 258° |
| 2026-05-08 19:25 | 60.00369 | 26.55985 | 36409 ft | 416 kts | 258° |
| 2026-05-08 19:26 | 59.99107 | 26.44713 | 36410 ft | 416 kts | 257° |
| 2026-05-08 19:26 | 59.97835 | 26.33452 | 36409 ft | 415 kts | 257° |
| 2026-05-08 19:27 | 59.96555 | 26.22213 | 36411 ft | 416 kts | 257° |
| 2026-05-08 19:27 | 59.95261 | 26.10958 | 36412 ft | 416 kts | 257° |
| 2026-05-08 19:28 | 59.93963 | 25.99708 | 36395 ft | 416 kts | 257° |
| 2026-05-08 19:28 | 59.92663 | 25.88497 | 36414 ft | 415 kts | 257° |
| 2026-05-08 19:29 | 59.91340 | 25.77271 | 36410 ft | 415 kts | 257° |
| 2026-05-08 19:29 | 59.90018 | 25.66138 | 36412 ft | 416 kts | 257° |
| 2026-05-08 19:30 | 59.88685 | 25.54925 | 36404 ft | 416 kts | 256° |
| 2026-05-08 19:30 | 59.87343 | 25.43736 | 36406 ft | 416 kts | 256° |
| 2026-05-08 19:31 | 59.85986 | 25.32556 | 36409 ft | 415 kts | 256° |
| 2026-05-08 19:31 | 59.84619 | 25.21375 | 36401 ft | 416 kts | 256° |
| 2026-05-08 19:32 | 59.83246 | 25.10222 | 36411 ft | 415 kts | 256° |
| 2026-05-08 19:32 | 59.81867 | 24.99056 | 36383 ft | 416 kts | 256° |
| 2026-05-08 19:33 | 59.80474 | 24.87901 | 36388 ft | 416 kts | 256° |
| 2026-05-08 19:33 | 59.79062 | 24.76743 | 36380 ft | 417 kts | 255° |
| 2026-05-08 19:34 | 59.77648 | 24.65586 | 36385 ft | 417 kts | 255° |
| 2026-05-08 19:34 | 59.76218 | 24.54440 | 36391 ft | 417 kts | 255° |
| 2026-05-08 19:35 | 59.74769 | 24.43316 | 36381 ft | 416 kts | 255° |
| 2026-05-08 19:35 | 59.73166 | 24.32286 | 36381 ft | 416 kts | 253° |
| 2026-05-08 19:36 | 59.71451 | 24.21320 | 36395 ft | 417 kts | 252° |
| 2026-05-08 19:36 | 59.69736 | 24.10352 | 36381 ft | 417 kts | 252° |
| 2026-05-08 19:37 | 59.68057 | 23.99423 | 36371 ft | 418 kts | 252° |
| 2026-05-08 19:37 | 59.66365 | 23.88408 | 36384 ft | 419 kts | 252° |
| 2026-05-08 19:38 | 59.64660 | 23.77408 | 36381 ft | 419 kts | 252° |
| 2026-05-08 19:38 | 59.62936 | 23.66429 | 36386 ft | 419 kts | 252° |
| 2026-05-08 19:39 | 59.61203 | 23.55463 | 36397 ft | 418 kts | 251° |
| 2026-05-08 19:39 | 59.59454 | 23.44484 | 36398 ft | 418 kts | 251° |
| 2026-05-08 19:40 | 59.57714 | 23.33530 | 36401 ft | 419 kts | 251° |
| 2026-05-08 19:40 | 59.55959 | 23.22581 | 36403 ft | 419 kts | 251° |
| 2026-05-08 19:41 | 59.53867 | 23.11904 | 36399 ft | 418 kts | 244° |
| 2026-05-08 19:41 | 59.51378 | 23.01553 | 36395 ft | 418 kts | 244° |
| 2026-05-08 19:42 | 59.48888 | 22.91222 | 36396 ft | 418 kts | 244° |
| 2026-05-08 19:42 | 59.46383 | 22.80887 | 36400 ft | 418 kts | 244° |
| 2026-05-08 19:43 | 59.43874 | 22.70596 | 36400 ft | 418 kts | 244° |
| 2026-05-08 19:43 | 59.41358 | 22.60289 | 36399 ft | 418 kts | 244° |
| 2026-05-08 19:44 | 59.38832 | 22.50010 | 36413 ft | 419 kts | 243° |
| 2026-05-08 19:44 | 59.36397 | 22.40125 | 36401 ft | 419 kts | 243° |
| 2026-05-08 19:45 | 59.33858 | 22.29863 | 36400 ft | 419 kts | 243° |
| 2026-05-08 19:45 | 59.31299 | 22.19575 | 36399 ft | 419 kts | 243° |
| 2026-05-08 19:46 | 59.28733 | 22.09329 | 36396 ft | 419 kts | 243° |
| 2026-05-08 19:46 | 59.24885 | 21.94049 | 36399 ft | 420 kts | 242° |
| 2026-05-08 19:47 | 59.22303 | 21.83831 | 36402 ft | 420 kts | 242° |
| 2026-05-08 19:47 | 59.19707 | 21.73617 | 36394 ft | 420 kts | 242° |
| 2026-05-08 19:48 | 59.17102 | 21.63429 | 36390 ft | 420 kts | 242° |
| 2026-05-08 19:48 | 59.14482 | 21.53240 | 36394 ft | 421 kts | 242° |
| 2026-05-08 19:49 | 59.11850 | 21.43034 | 36390 ft | 422 kts | 241° |
| 2026-05-08 19:49 | 59.09207 | 21.32831 | 36388 ft | 423 kts | 241° |
| 2026-05-08 19:50 | 59.06282 | 21.22946 | 36390 ft | 421 kts | 230° |
| 2026-05-08 19:50 | 59.01923 | 21.15486 | 36390 ft | 419 kts | 211° |
| 2026-05-08 19:51 | 58.99306 | 21.13020 | 36390 ft | 419 kts | 200° |
| 2026-05-08 19:51 | 58.96541 | 21.11211 | 36390 ft | 419 kts | 199° |
| 2026-05-08 19:51 | 58.90999 | 21.07653 | 36391 ft | 420 kts | 199° |
| 2026-05-08 19:52 | 58.85462 | 21.04082 | 36388 ft | 420 kts | 199° |
| 2026-05-08 19:52 | 58.79911 | 21.00540 | 36384 ft | 420 kts | 199° |
| 2026-05-08 19:53 | 58.74356 | 20.97021 | 36385 ft | 420 kts | 199° |
| 2026-05-08 19:53 | 58.68843 | 20.93508 | 36382 ft | 420 kts | 199° |
| 2026-05-08 19:54 | 58.63291 | 20.89986 | 36385 ft | 420 kts | 199° |
| 2026-05-08 19:54 | 58.57740 | 20.86476 | 36383 ft | 421 kts | 199° |
| 2026-05-08 19:55 | 58.52178 | 20.82976 | 36383 ft | 421 kts | 198° |
| 2026-05-08 19:55 | 58.46604 | 20.79497 | 36380 ft | 421 kts | 198° |
| 2026-05-08 19:56 | 58.41041 | 20.76029 | 36376 ft | 421 kts | 198° |
| 2026-05-08 19:56 | 58.35463 | 20.72564 | 36372 ft | 422 kts | 198° |
| 2026-05-08 19:57 | 58.29889 | 20.69114 | 36372 ft | 421 kts | 198° |
| 2026-05-08 19:57 | 58.24309 | 20.65654 | 36364 ft | 421 kts | 198° |
| 2026-05-08 19:58 | 58.18732 | 20.62219 | 36363 ft | 422 kts | 198° |
| 2026-05-08 19:58 | 58.13142 | 20.58791 | 36358 ft | 422 kts | 198° |
| 2026-05-08 19:59 | 58.07553 | 20.55361 | 36331 ft | 424 kts | 198° |
| 2026-05-08 19:59 | 58.01922 | 20.51917 | 36312 ft | 427 kts | 198° |
| 2026-05-08 20:00 | 57.96238 | 20.48479 | 36314 ft | 430 kts | 198° |
| 2026-05-08 20:00 | 57.90534 | 20.45028 | 36314 ft | 432 kts | 197° |
| 2026-05-08 20:01 | 57.84844 | 20.41586 | 36318 ft | 433 kts | 197° |
| 2026-05-08 20:01 | 57.79096 | 20.38124 | 36320 ft | 434 kts | 197° |
| 2026-05-08 20:02 | 57.73335 | 20.34670 | 36325 ft | 435 kts | 197° |
| 2026-05-08 20:02 | 57.67567 | 20.31227 | 36324 ft | 435 kts | 197° |
| 2026-05-08 20:03 | 57.61680 | 20.28816 | 36315 ft | 435 kts | 179° |
| 2026-05-08 20:03 | 57.55628 | 20.29463 | 36302 ft | 436 kts | 177° |
| 2026-05-08 20:04 | 57.49561 | 20.30234 | 36301 ft | 437 kts | 176° |
| 2026-05-08 20:04 | 57.43490 | 20.31036 | 36301 ft | 437 kts | 176° |
| 2026-05-08 20:05 | 57.37416 | 20.31817 | 36305 ft | 438 kts | 176° |
| 2026-05-08 20:05 | 57.31334 | 20.32577 | 36301 ft | 438 kts | 176° |
| 2026-05-08 20:06 | 57.25239 | 20.33336 | 36303 ft | 439 kts | 176° |
| 2026-05-08 20:06 | 57.19144 | 20.34093 | 36307 ft | 439 kts | 176° |
| 2026-05-08 20:07 | 57.13047 | 20.34853 | 36306 ft | 439 kts | 176° |
| 2026-05-08 20:07 | 57.06939 | 20.35612 | 36306 ft | 440 kts | 176° |
| 2026-05-08 20:08 | 57.00836 | 20.36363 | 36300 ft | 440 kts | 176° |
| 2026-05-08 20:08 | 56.94734 | 20.37114 | 36301 ft | 440 kts | 176° |
| 2026-05-08 20:09 | 56.88634 | 20.37860 | 36288 ft | 439 kts | 176° |
| 2026-05-08 20:09 | 56.82548 | 20.38613 | 36295 ft | 438 kts | 176° |
| 2026-05-08 20:10 | 56.76452 | 20.39357 | 36292 ft | 438 kts | 176° |
| 2026-05-08 20:10 | 56.70367 | 20.40090 | 36290 ft | 438 kts | 176° |
| 2026-05-08 20:11 | 56.65311 | 20.40688 | 36282 ft | 438 kts | 176° |
| 2026-05-08 20:11 | 56.59216 | 20.41417 | 36280 ft | 438 kts | 176° |
| 2026-05-08 20:12 | 56.53133 | 20.42151 | 36275 ft | 438 kts | 176° |
| 2026-05-08 20:12 | 56.47044 | 20.42881 | 36265 ft | 438 kts | 176° |
| 2026-05-08 20:13 | 56.40950 | 20.43599 | 36247 ft | 439 kts | 176° |
| 2026-05-08 20:13 | 56.34847 | 20.44324 | 36246 ft | 440 kts | 176° |
| 2026-05-08 20:14 | 56.28742 | 20.45048 | 36245 ft | 440 kts | 176° |
| 2026-05-08 20:14 | 56.22634 | 20.45781 | 36230 ft | 440 kts | 176° |
| 2026-05-08 20:15 | 56.16520 | 20.46503 | 36233 ft | 441 kts | 176° |
| 2026-05-08 20:15 | 56.10384 | 20.47218 | 36226 ft | 442 kts | 176° |
| 2026-05-08 20:16 | 56.04241 | 20.47933 | 36229 ft | 443 kts | 176° |
| 2026-05-08 20:16 | 55.98087 | 20.48647 | 36228 ft | 443 kts | 176° |
| 2026-05-08 20:17 | 55.91925 | 20.49376 | 36231 ft | 444 kts | 176° |
| 2026-05-08 20:17 | 55.88832 | 20.49741 | 36115 ft | 448 kts | 176° |
| 2026-05-08 20:17 | 55.85724 | 20.50126 | 35651 ft | 445 kts | 174° |
| 2026-05-08 20:18 | 55.82702 | 20.51165 | 34721 ft | 440 kts | 166° |
| 2026-05-08 20:18 | 55.79724 | 20.52454 | 33374 ft | 440 kts | 165° |
| 2026-05-08 20:18 | 55.76761 | 20.53779 | 31950 ft | 438 kts | 164° |
| 2026-05-08 20:18 | 55.73801 | 20.55122 | 30398 ft | 439 kts | 163° |
| 2026-05-08 20:19 | 55.70838 | 20.56469 | 28555 ft | 440 kts | 164° |
| 2026-05-08 20:19 | 55.67854 | 20.57818 | 26490 ft | 446 kts | 164° |
| 2026-05-08 20:19 | 55.64823 | 20.59173 | 24503 ft | 452 kts | 165° |
| 2026-05-08 20:19 | 55.61775 | 20.60516 | 22953 ft | 448 kts | 165° |
| 2026-05-08 20:20 | 55.58772 | 20.61829 | 21421 ft | 442 kts | 165° |
| 2026-05-08 20:20 | 55.55810 | 20.63125 | 20053 ft | 435 kts | 164° |
| 2026-05-08 20:20 | 55.52894 | 20.64393 | 18732 ft | 428 kts | 165° |
| 2026-05-08 20:20 | 55.50019 | 20.65646 | 17304 ft | 423 kts | 164° |
| 2026-05-08 20:21 | 55.47189 | 20.66884 | 16033 ft | 415 kts | 164° |
| 2026-05-08 20:21 | 55.44418 | 20.68093 | 14831 ft | 406 kts | 164° |
| 2026-05-08 20:21 | 55.41699 | 20.69279 | 13629 ft | 399 kts | 164° |
| 2026-05-08 20:21 | 55.39030 | 20.70446 | 12267 ft | 393 kts | 164° |
| 2026-05-08 20:22 | 55.36393 | 20.71598 | 10930 ft | 389 kts | 163° |
| 2026-05-08 20:22 | 55.33808 | 20.72726 | 9999 ft | 387 kts | 163° |
| 2026-05-08 20:22 | 55.31214 | 20.73849 | 9794 ft | 370 kts | 163° |
| 2026-05-08 20:22 | 55.28769 | 20.74897 | 9673 ft | 354 kts | 163° |
| 2026-05-08 20:23 | 55.26436 | 20.75896 | 9520 ft | 338 kts | 162° |
| 2026-05-08 20:23 | 55.24228 | 20.76846 | 9389 ft | 321 kts | 162° |
| 2026-05-08 20:23 | 55.22136 | 20.77746 | 9164 ft | 300 kts | 162° |
| 2026-05-08 20:23 | 55.20143 | 20.78610 | 8638 ft | 291 kts | 162° |
| 2026-05-08 20:24 | 55.18198 | 20.79454 | 7997 ft | 287 kts | 161° |
| 2026-05-08 20:24 | 55.16225 | 20.80320 | 6875 ft | 300 kts | 162° |
| 2026-05-08 20:24 | 55.14214 | 20.81200 | 6351 ft | 290 kts | 162° |
| 2026-05-08 20:24 | 55.12310 | 20.82014 | 5913 ft | 276 kts | 162° |
| 2026-05-08 20:25 | 55.10467 | 20.82800 | 5337 ft | 270 kts | 161° |
| 2026-05-08 20:25 | 55.08657 | 20.83577 | 4715 ft | 266 kts | 161° |
| 2026-05-08 20:25 | 55.06884 | 20.84336 | 4266 ft | 255 kts | 161° |
| 2026-05-08 20:25 | 55.05230 | 20.85032 | 4100 ft | 234 kts | 161° |
| 2026-05-08 20:26 | 55.03691 | 20.85677 | 3894 ft | 221 kts | 161° |
| 2026-05-08 20:26 | 55.02216 | 20.86307 | 3766 ft | 215 kts | 161° |
| 2026-05-08 20:26 | 55.00797 | 20.86912 | 3666 ft | 206 kts | 161° |
| 2026-05-08 20:26 | 54.99422 | 20.87474 | 3556 ft | 201 kts | 166° |
| 2026-05-08 20:27 | 54.98041 | 20.87432 | 3291 ft | 197 kts | 187° |
| 2026-05-08 20:27 | 54.96804 | 20.86585 | 3135 ft | 186 kts | 208° |
| 2026-05-08 20:27 | 54.95831 | 20.85144 | 2924 ft | 183 kts | 228° |
| 2026-05-08 20:27 | 54.95182 | 20.83268 | 2699 ft | 180 kts | 246° |
| 2026-05-08 20:28 | 54.94675 | 20.81287 | 2466 ft | 178 kts | 246° |
| 2026-05-08 20:28 | 54.94184 | 20.79373 | 2210 ft | 167 kts | 246° |
| 2026-05-08 20:28 | 54.93726 | 20.77583 | 1998 ft | 158 kts | 247° |
| 2026-05-08 20:28 | 54.93284 | 20.75858 | 1779 ft | 155 kts | 247° |
| 2026-05-08 20:29 | 54.92849 | 20.74166 | 1566 ft | 152 kts | 246° |
| 2026-05-08 20:29 | 54.92421 | 20.72504 | 1370 ft | 149 kts | 246° |
| 2026-05-08 20:29 | 54.92001 | 20.70868 | 1164 ft | 147 kts | 246° |
| 2026-05-08 20:29 | 54.91584 | 20.69252 | 959 ft | 145 kts | 246° |
| 2026-05-08 20:30 | 54.91176 | 20.67667 | 764 ft | 143 kts | 246° |
| 2026-05-08 20:30 | 54.90771 | 20.66098 | 586 ft | 141 kts | 246° |
| 2026-05-08 20:30 | 54.90375 | 20.64557 | 383 ft | 139 kts | 246° |
| 2026-05-08 20:30 | 54.89981 | 20.63032 | 203 ft | 138 kts | 247° |
| 2026-05-08 20:31 | 54.89592 | 20.61524 | 31 ft | 134 kts | 247° |
| 2026-05-08 20:31 | 54.89260 | 20.60252 | 24 ft | 82 kts | 247° |
| 2026-05-08 20:31 | 54.89127 | 20.59704 | 23 ft | 36 kts | 247° |
| 2026-05-08 20:31 | 54.89034 | 20.59351 | 25 ft | 30 kts | 241° |
| 2026-05-08 20:32 | 54.88894 | 20.59101 | 25 ft | 29 kts | 206° |
| 2026-05-08 20:32 | 54.88733 | 20.58957 | 26 ft | 19 kts | 215° |
| 2026-05-08 20:32 | 54.88670 | 20.58773 | 26 ft | 15 kts | 221° |
| 2026-05-08 20:32 | 54.88604 | 20.58743 | 26 ft | 8 kts | 220° |
| 2026-05-08 20:33 | 54.88596 | 20.58723 | 26 ft | 0 kts | 239° |
| 2026-05-08 20:33 | 54.88589 | 20.58700 | 26 ft | 3 kts | 243° |
| 2026-05-08 20:34 | 54.88581 | 20.58669 | 27 ft | 5 kts | 245° |
| 2026-05-08 20:34 | 54.88553 | 20.58560 | 27 ft | 11 kts | 245° |
| 2026-05-08 20:34 | 54.88476 | 20.58487 | 27 ft | 6 kts | 160° |
| 2026-05-08 20:35 | 54.88442 | 20.58477 | 27 ft | 4 kts | 216° |
| 2026-05-08 20:35 | 54.88427 | 20.58437 | 27 ft | 5 kts | 239° |
| 2026-05-08 20:35 | 54.88395 | 20.58349 | 27 ft | 8 kts | 239° |
| 2026-05-08 20:35 | 54.88367 | 20.58287 | 27 ft | 5 kts | 201° |
| 2026-05-08 20:36 | 54.88349 | 20.58318 | 27 ft | 3 kts | 119° |
| 2026-05-08 20:36 | 54.88337 | 20.58340 | 27 ft | 2 kts | 137° |
| 2026-05-08 20:36 | 54.88328 | 20.58353 | 27 ft | 1 kts | 139° |
| 2026-05-08 20:36 | 54.88324 | 20.58358 | 27 ft | 0 kts | 140° |